Time;durP1;ratioP1;P1;durP2;ratioP2;P2;SDS_P1;SDS_P2;PMS_P1;PMS_P2;Temp;Humidity;BMP_temperature;BMP_pressure;BME280_temperature;BME280_humidity;BME280_pressure;Samples;Min_cycle;Max_cycle;Signal;HPM_P1;HPM_P2
2023/03/21 00:01:04;;;;;;;;;;;;;;;;;;6233566;22;19926;-88
2023/03/21 00:03:30;;;;;;;;;;;;;;;;;;6238349;22;20010;-88
2023/03/21 00:05:56;;;;;;;;;;;;;;;;;;6209843;22;20294;-88
2023/03/21 00:08:22;;;;;;;;;;;;;;;;;;6212465;22;19926;-88
2023/03/21 00:10:48;;;;;;;;;;;;;;;;;;6207767;22;20395;-88
2023/03/21 00:13:14;;;;;;;;;;;;;;;;;;6238151;22;19927;-87
2023/03/21 00:15:49;;;;;;;;;;;;;;;;;;6213009;22;20423;-88
2023/03/21 00:18:15;;;;;;;;;;;;;;;;;;6240904;22;19941;-88
2023/03/21 00:20:41;;;;;;;;;;;;;;;;;;6236807;22;19954;-88
2023/03/21 00:23:07;;;;;;;;;;;;;;;;;;6238890;22;19927;-87
2023/03/21 00:25:33;;;;;;;;;;;;;;;;;;6214336;22;20261;-87
2023/03/21 00:27:59;;;;;;;;;;;;;;;;;;6207752;22;19972;-88
2023/03/21 00:30:25;;;;;;;;;;;;;;;;;;6238650;22;20017;-87
2023/03/21 00:32:51;;;;;;;;;;;;;;;;;;6238785;22;20148;-87
2023/03/21 00:35:17;;;;;;;;;;;;;;;;;;6240607;22;20383;-87
2023/03/21 00:37:43;;;;;;;;;;;;;;;;;;6212154;22;20359;-87
2023/03/21 00:40:09;;;;;;;;;;;;;;;;;;6237571;22;20269;-87
2023/03/21 00:42:35;;;;;;;;;;;;;;;;;;6238693;22;19925;-87
2023/03/21 00:45:01;;;;;;;;;;;;;;;;;;6263818;22;19915;-87
2023/03/21 00:47:27;;;;;;;;;;;;;;;;;;6238316;22;20324;-87
2023/03/21 00:49:53;;;;;;;;;;;;;;;;;;6237040;22;19938;-87
2023/03/21 00:52:19;;;;;;;;;;;;;;;;;;6213940;22;19951;-87
2023/03/21 00:54:45;;;;;;;;;;;;;;;;;;6211553;22;19915;-87
2023/03/21 00:57:11;;;;;;;;;;;;;;;;;;6266272;22;19915;-87
2023/03/21 00:59:38;;;;;;;;;;;;;;;;;;6241373;22;20082;-87
2023/03/21 01:02:06;;;;;;;;;;;;;;;;;;6215073;22;19919;-88
2023/03/21 01:04:32;;;;;;;;;;;;;;;;;;6241571;22;19919;-87
2023/03/21 01:06:58;;;;;;;;;;;;;;;;;;6263305;22;20673;-87
2023/03/21 01:09:24;;;;;;;;;;;;;;;;;;6214239;22;19985;-88
2023/03/21 01:11:50;;;;;;;;;;;;;;;;;;6211749;22;19915;-88
2023/03/21 01:14:16;;;;;;;;;;;;;;;;;;6212744;22;20290;-88
2023/03/21 01:16:42;;;;;;;;;;;;;;;;;;6209226;22;19919;-88
2023/03/21 01:19:08;;;;;;;;;;;;;;;;;;6240297;22;19923;-87
2023/03/21 01:21:35;;;;;;;;;;;;;;;;;;6213535;22;19951;-88
2023/03/21 01:24:00;;;;;;;;;;;;;;;;;;6236830;22;19915;-88
2023/03/21 01:26:26;;;;;;;;;;;;;;;;;;6237596;22;19915;-88
2023/03/21 01:28:52;;;;;;;;;;;;;;;;;;6211182;22;19919;-88
2023/03/21 01:31:18;;;;;;;;;;;;;;;;;;6197169;23;19926;-88
2023/03/21 01:33:44;;;;;;;;;;;;;;;;;;6207215;23;19923;-88
2023/03/21 01:36:10;;;;;;;;;;;;;;;;;;6207926;23;19923;-88
2023/03/21 01:38:36;;;;;;;;;;;;;;;;;;6209572;23;20364;-88
2023/03/21 01:41:02;;;;;;;;;;;;;;;;;;6182372;23;19919;-88
2023/03/21 01:43:28;;;;;;;;;;;;;;;;;;6209068;23;19926;-88
2023/03/21 01:45:54;;;;;;;;;;;;;;;;;;6205332;23;20350;-88
2023/03/21 01:48:20;;;;;;;;;;;;;;;;;;6209393;23;19919;-88
2023/03/21 01:50:46;;;;;;;;;;;;;;;;;;6206125;23;19920;-88
2023/03/21 01:53:12;;;;;;;;;;;;;;;;;;6209004;23;20227;-88
2023/03/21 01:55:38;;;;;;;;;;;;;;;;;;6206591;23;20075;-87
2023/03/21 01:58:04;;;;;;;;;;;;;;;;;;6208187;23;19923;-88
2023/03/21 02:00:30;;;;;;;;;;;;;;;;;;6207791;23;20205;-88
2023/03/21 02:02:58;;;;;;;;;;;;;;;;;;6181558;23;20324;-87
2023/03/21 02:05:24;;;;;;;;;;;;;;;;;;6206486;23;20198;-87
2023/03/21 02:07:51;;;;;;;;;;;;;;;;;;6207877;23;19926;-88
2023/03/21 02:10:17;;;;;;;;;;;;;;;;;;6209219;23;19919;-87
2023/03/21 02:12:43;;;;;;;;;;;;;;;;;;6180812;23;20388;-88
2023/03/21 02:15:09;;;;;;;;;;;;;;;;;;6181931;23;20368;-88
2023/03/21 02:17:35;;;;;;;;;;;;;;;;;;6207371;23;19959;-87
2023/03/21 02:20:02;;;;;;;;;;;;;;;;;;6181726;23;19927;-88
2023/03/21 02:22:28;;;;;;;;;;;;;;;;;;6206833;23;19926;-88
2023/03/21 02:24:54;;;;;;;;;;;;;;;;;;6179601;23;19926;-88
2023/03/21 02:27:23;;;;;;;;;;;;;;;;;;6205944;23;19920;-87
2023/03/21 02:29:51;;;;;;;;;;;;;;;;;;6180953;23;19977;-88
2023/03/21 02:32:17;;;;;;;;;;;;;;;;;;6226133;23;19926;-87
2023/03/21 02:34:43;;;;;;;;;;;;;;;;;;6230507;23;19919;-87
2023/03/21 02:37:08;;;;;;;;;;;;;;;;;;6233637;23;19919;-88
2023/03/21 02:39:34;;;;;;;;;;;;;;;;;;6232957;23;19927;-88
2023/03/21 02:42:00;;;;;;;;;;;;;;;;;;6230875;23;19950;-88
2023/03/21 02:44:26;;;;;;;;;;;;;;;;;;6208680;23;19916;-88
2023/03/21 02:46:52;;;;;;;;;;;;;;;;;;6231357;23;19973;-87
2023/03/21 02:49:18;;;;;;;;;;;;;;;;;;6207849;23;19919;-88
2023/03/21 02:51:44;;;;;;;;;;;;;;;;;;6230324;23;19924;-88
2023/03/21 02:54:10;;;;;;;;;;;;;;;;;;6207939;23;20298;-88
2023/03/21 02:56:36;;;;;;;;;;;;;;;;;;6207964;23;19965;-88
2023/03/21 02:59:02;;;;;;;;;;;;;;;;;;6230367;23;19930;-88
2023/03/21 03:01:28;;;;;;;;;;;;;;;;;;6229899;23;19919;-88
2023/03/21 03:03:54;;;;;;;;;;;;;;;;;;6227151;23;20413;-87
2023/03/21 03:06:20;;;;;;;;;;;;;;;;;;6231380;23;19941;-88
2023/03/21 03:08:46;;;;;;;;;;;;;;;;;;6202596;23;19919;-87
2023/03/21 03:11:12;;;;;;;;;;;;;;;;;;6231214;22;20351;-87
2023/03/21 03:13:38;;;;;;;;;;;;;;;;;;6204846;23;19994;-88
2023/03/21 03:16:04;;;;;;;;;;;;;;;;;;6204591;23;19920;-88
2023/03/21 03:18:30;;;;;;;;;;;;;;;;;;6206695;23;20343;-87
2023/03/21 03:20:56;;;;;;;;;;;;;;;;;;6227986;23;19924;-88
2023/03/21 03:23:22;;;;;;;;;;;;;;;;;;6229987;23;20360;-87
2023/03/21 03:25:48;;;;;;;;;;;;;;;;;;6202327;23;19916;-88
2023/03/21 03:28:14;;;;;;;;;;;;;;;;;;6228156;23;20264;-87
2023/03/21 03:30:40;;;;;;;;;;;;;;;;;;6231660;22;19919;-88
2023/03/21 03:33:06;;;;;;;;;;;;;;;;;;6211137;22;19919;-87
2023/03/21 03:35:32;;;;;;;;;;;;;;;;;;6235664;22;19942;-88
2023/03/21 03:37:58;;;;;;;;;;;;;;;;;;6235723;22;20290;-88
2023/03/21 03:40:24;;;;;;;;;;;;;;;;;;6212721;22;20253;-88
2023/03/21 03:42:50;;;;;;;;;;;;;;;;;;6210172;22;19926;-88
2023/03/21 03:45:16;;;;;;;;;;;;;;;;;;6238357;22;19926;-88
2023/03/21 03:47:42;;;;;;;;;;;;;;;;;;6212675;22;19919;-87
2023/03/21 03:50:08;;;;;;;;;;;;;;;;;;6214073;22;19915;-88
2023/03/21 03:52:35;;;;;;;;;;;;;;;;;;6240785;22;19923;-88
2023/03/21 03:55:01;;;;;;;;;;;;;;;;;;6212235;22;19919;-88
2023/03/21 03:57:26;;;;;;;;;;;;;;;;;;6214579;22;19915;-87
2023/03/21 03:59:52;;;;;;;;;;;;;;;;;;6211335;22;20286;-88
2023/03/21 04:02:19;;;;;;;;;;;;;;;;;;6241494;22;20136;-88
2023/03/21 04:04:45;;;;;;;;;;;;;;;;;;6240406;22;20255;-87
2023/03/21 04:07:11;;;;;;;;;;;;;;;;;;6240910;22;20401;-88
2023/03/21 04:09:38;;;;;;;;;;;;;;;;;;6213599;22;20003;-88
2023/03/21 04:12:04;;;;;;;;;;;;;;;;;;6214623;22;19919;-88
2023/03/21 04:14:30;;;;;;;;;;;;;;;;;;6239491;22;19919;-87
2023/03/21 04:16:56;;;;;;;;;;;;;;;;;;6236784;22;19926;-88
2023/03/21 04:19:22;;;;;;;;;;;;;;;;;;6240769;22;20320;-88
2023/03/21 04:21:48;;;;;;;;;;;;;;;;;;6210922;22;19920;-87
2023/03/21 04:24:14;;;;;;;;;;;;;;;;;;6239310;22;19923;-88
2023/03/21 04:26:40;;;;;;;;;;;;;;;;;;6212060;22;19991;-88
2023/03/21 04:29:06;;;;;;;;;;;;;;;;;;6240314;22;20293;-88
2023/03/21 04:31:33;;;;;;;;;;;;;;;;;;6199551;23;19962;-88
2023/03/21 04:33:59;;;;;;;;;;;;;;;;;;6182236;23;20172;-88
2023/03/21 04:36:27;;;;;;;;;;;;;;;;;;6210401;23;20011;-88
2023/03/21 04:38:53;;;;;;;;;;;;;;;;;;6182496;23;20668;-88
2023/03/21 04:41:19;;;;;;;;;;;;;;;;;;6183771;23;19947;-88
2023/03/21 04:43:46;;;;;;;;;;;;;;;;;;6183390;23;19969;-87
2023/03/21 04:46:12;;;;;;;;;;;;;;;;;;6183341;23;19919;-88
2023/03/21 04:48:38;;;;;;;;;;;;;;;;;;6184952;23;20241;-88
2023/03/21 04:51:04;;;;;;;;;;;;;;;;;;6211016;23;19999;-88
2023/03/21 04:53:30;;;;;;;;;;;;;;;;;;6186346;23;19919;-88
2023/03/21 04:55:56;;;;;;;;;;;;;;;;;;6206907;23;19919;-88
2023/03/21 04:58:22;;;;;;;;;;;;;;;;;;6210293;23;19919;-88
2023/03/21 05:00:51;;;;;;;;;;;;;;;;;;6205044;23;19955;-88
2023/03/21 05:03:19;;;;;;;;;;;;;;;;;;6208777;23;19930;-88
2023/03/21 05:05:45;;;;;;;;;;;;;;;;;;6235320;23;19991;-88
2023/03/21 05:08:12;;;;;;;;;;;;;;;;;;6186660;23;19926;-88
2023/03/21 05:10:38;;;;;;;;;;;;;;;;;;6208790;23;20230;-88
2023/03/21 05:13:04;;;;;;;;;;;;;;;;;;6183711;23;19981;-88
2023/03/21 05:15:30;;;;;;;;;;;;;;;;;;6208156;23;19919;-87
2023/03/21 05:18:10;;;;;;;;;;;;;;;;;;6211002;23;19916;-87
2023/03/21 05:20:36;;;;;;;;;;;;;;;;;;6190541;23;20025;-87
2023/03/21 05:23:02;;;;;;;;;;;;;;;;;;6179181;23;19994;-87
2023/03/21 05:25:33;;;;;;;;;;;;;;;;;;6207098;23;19916;-88
2023/03/21 05:28:00;;;;;;;;;;;;;;;;;;6182007;23;19969;-88
2023/03/21 05:30:26;;;;;;;;;;;;;;;;;;6208892;22;20221;-88
2023/03/21 05:32:52;;;;;;;;;;;;;;;;;;6236243;22;19993;-87
2023/03/21 05:35:18;;;;;;;;;;;;;;;;;;6213791;22;19916;-88
2023/03/21 05:37:44;;;;;;;;;;;;;;;;;;6212133;22;19927;-88
2023/03/21 05:40:11;;;;;;;;;;;;;;;;;;6239858;22;19924;-88
2023/03/21 05:42:37;;;;;;;;;;;;;;;;;;6212959;22;20217;-87
2023/03/21 05:45:03;;;;;;;;;;;;;;;;;;6212249;22;19926;-87
2023/03/21 05:47:29;;;;;;;;;;;;;;;;;;6214543;22;20020;-87
2023/03/21 05:49:55;;;;;;;;;;;;;;;;;;6211169;22;19929;-87
2023/03/21 05:52:21;;;;;;;;;;;;;;;;;;6239284;22;19919;-87
2023/03/21 05:54:47;;;;;;;;;;;;;;;;;;6212867;22;19920;-88
2023/03/21 05:57:13;;;;;;;;;;;;;;;;;;6213721;22;19923;-87
2023/03/21 05:59:39;;;;;;;;;;;;;;;;;;6211594;22;19919;-87
2023/03/21 06:02:05;;;;;;;;;;;;;;;;;;6211421;22;19923;-87
2023/03/21 06:04:31;;;;;;;;;;;;;;;;;;6236684;22;20344;-87
2023/03/21 06:06:57;;;;;;;;;;;;;;;;;;6236126;22;19990;-87
2023/03/21 06:09:23;;;;;;;;;;;;;;;;;;6212167;22;20365;-87
2023/03/21 06:11:49;;;;;;;;;;;;;;;;;;6211050;22;19918;-87
2023/03/21 06:14:15;;;;;;;;;;;;;;;;;;6212514;22;19931;-88
2023/03/21 06:16:41;;;;;;;;;;;;;;;;;;6212308;22;19919;-88
2023/03/21 06:19:07;;;;;;;;;;;;;;;;;;6215587;22;20328;-87
2023/03/21 06:21:33;;;;;;;;;;;;;;;;;;6239604;22;19954;-87
2023/03/21 06:23:59;;;;;;;;;;;;;;;;;;6210052;22;19934;-87
2023/03/21 06:26:25;;;;;;;;;;;;;;;;;;6213145;22;19923;-87
2023/03/21 06:28:51;;;;;;;;;;;;;;;;;;6236470;22;19986;-87
2023/03/21 06:31:17;;;;;;;;;;;;;;;;;;6207862;23;19927;-87
2023/03/21 06:33:43;;;;;;;;;;;;;;;;;;6205286;23;19923;-87
2023/03/21 06:36:09;;;;;;;;;;;;;;;;;;6207440;23;19916;-87
2023/03/21 06:38:36;;;;;;;;;;;;;;;;;;6233107;23;20687;-87
2023/03/21 06:41:03;;;;;;;;;;;;;;;;;;6203581;23;20049;-87
2023/03/21 06:43:30;;;;;;;;;;;;;;;;;;6205551;23;19986;-87
2023/03/21 06:45:56;;;;;;;;;;;;;;;;;;6205273;23;20331;-87
2023/03/21 06:48:22;;;;;;;;;;;;;;;;;;6208818;23;19990;-87
2023/03/21 06:50:48;;;;;;;;;;;;;;;;;;6204891;23;19920;-87
2023/03/21 06:53:14;;;;;;;;;;;;;;;;;;6231149;23;19971;-87
2023/03/21 06:55:40;;;;;;;;;;;;;;;;;;6205035;23;19951;-87
2023/03/21 06:58:06;;;;;;;;;;;;;;;;;;6210254;23;19995;-87
2023/03/21 07:00:32;;;;;;;;;;;;;;;;;;6231410;23;19930;-87
2023/03/21 07:02:58;;;;;;;;;;;;;;;;;;6200444;23;19916;-87
2023/03/21 07:05:24;;;;;;;;;;;;;;;;;;6205681;23;19958;-86
2023/03/21 07:07:50;;;;;;;;;;;;;;;;;;6206439;23;20415;-87
2023/03/21 07:10:16;;;;;;;;;;;;;;;;;;6207753;23;19922;-87
2023/03/21 07:12:42;;;;;;;;;;;;;;;;;;6228701;23;19979;-87
2023/03/21 07:15:08;;;;;;;;;;;;;;;;;;6211193;23;19916;-87
2023/03/21 07:17:34;;;;;;;;;;;;;;;;;;6233309;23;19977;-88
2023/03/21 07:20:00;;;;;;;;;;;;;;;;;;6232759;23;19934;-87
2023/03/21 07:22:26;;;;;;;;;;;;;;;;;;6208218;23;19920;-88
2023/03/21 07:24:52;;;;;;;;;;;;;;;;;;6207556;23;19915;-87
2023/03/21 07:27:18;;;;;;;;;;;;;;;;;;6210177;23;19964;-87
2023/03/21 07:29:46;;;;;;;;;;;;;;;;;;6208276;23;19978;-87
2023/03/21 07:32:12;;;;;;;;;;;;;;;;;;6217355;23;20226;-87
2023/03/21 07:34:41;;;;;;;;;;;;;;;;;;6185630;23;20287;-88
2023/03/21 07:37:07;;;;;;;;;;;;;;;;;;6184403;23;19955;-87
2023/03/21 07:39:33;;;;;;;;;;;;;;;;;;6209726;23;19924;-87
2023/03/21 07:41:59;;;;;;;;;;;;;;;;;;6206735;23;19990;-87
2023/03/21 07:44:25;;;;;;;;;;;;;;;;;;6210622;23;19930;-87
2023/03/21 07:46:51;;;;;;;;;;;;;;;;;;6183058;23;19916;-87
2023/03/21 07:49:17;;;;;;;;;;;;;;;;;;6184650;23;20002;-87
2023/03/21 07:51:43;;;;;;;;;;;;;;;;;;6181841;23;19926;-87
2023/03/21 07:54:09;;;;;;;;;;;;;;;;;;6184847;23;19982;-87
2023/03/21 07:56:35;;;;;;;;;;;;;;;;;;6185614;23;19919;-87
2023/03/21 07:59:01;;;;;;;;;;;;;;;;;;6208459;23;19931;-87
2023/03/21 08:01:27;;;;;;;;;;;;;;;;;;6210299;23;19955;-87
2023/03/21 08:03:53;;;;;;;;;;;;;;;;;;6183834;23;19915;-87
2023/03/21 08:06:19;;;;;;;;;;;;;;;;;;6210118;23;19931;-87
2023/03/21 08:08:45;;;;;;;;;;;;;;;;;;6232316;23;19941;-87
2023/03/21 08:11:11;;;;;;;;;;;;;;;;;;6208996;23;20338;-87
2023/03/21 08:13:37;;;;;;;;;;;;;;;;;;6208250;23;19915;-87
2023/03/21 08:16:06;;;;;;;;;;;;;;;;;;6186493;23;19923;-87
2023/03/21 08:18:32;;;;;;;;;;;;;;;;;;6186387;23;19922;-87
2023/03/21 08:20:58;;;;;;;;;;;;;;;;;;6207786;23;20346;-87
2023/03/21 08:23:24;;;;;;;;;;;;;;;;;;6207685;23;19920;-87
2023/03/21 08:25:51;;;;;;;;;;;;;;;;;;6180215;23;19920;-87
2023/03/21 08:28:17;;;;;;;;;;;;;;;;;;6185038;23;20061;-87
2023/03/21 08:30:43;;;;;;;;;;;;;;;;;;6184191;22;19920;-86
2023/03/21 08:33:09;;;;;;;;;;;;;;;;;;6216565;22;19990;-87
2023/03/21 08:35:35;;;;;;;;;;;;;;;;;;6240428;22;19919;-88
2023/03/21 08:38:01;;;;;;;;;;;;;;;;;;6215659;22;19915;-87
2023/03/21 08:40:27;;;;;;;;;;;;;;;;;;6242058;22;20399;-87
2023/03/21 08:42:53;;;;;;;;;;;;;;;;;;6240783;22;19919;-87
2023/03/21 08:45:19;;;;;;;;;;;;;;;;;;6242090;22;19919;-87
2023/03/21 08:47:45;;;;;;;;;;;;;;;;;;6239705;22;19968;-87
2023/03/21 08:50:11;;;;;;;;;;;;;;;;;;6242841;22;20232;-87
2023/03/21 08:52:37;;;;;;;;;;;;;;;;;;6217231;22;19919;-87
2023/03/21 08:55:03;;;;;;;;;;;;;;;;;;6215237;22;19915;-87
2023/03/21 08:57:29;;;;;;;;;;;;;;;;;;6241063;22;19915;-86
2023/03/21 08:59:55;;;;;;;;;;;;;;;;;;6215276;22;20378;-87
2023/03/21 09:02:21;;;;;;;;;;;;;;;;;;6217269;22;19919;-86
2023/03/21 09:04:47;;;;;;;;;;;;;;;;;;6215001;22;19954;-86
2023/03/21 09:07:16;;;;;;;;;;;;;;;;;;6215701;22;20044;-86
2023/03/21 09:09:42;;;;;;;;;;;;;;;;;;6241252;22;19926;-87
2023/03/21 09:12:08;;;;;;;;;;;;;;;;;;6242529;22;20305;-87
2023/03/21 09:14:34;;;;;;;;;;;;;;;;;;6216935;22;19919;-87
2023/03/21 09:17:00;;;;;;;;;;;;;;;;;;6239613;22;20259;-87
2023/03/21 09:19:27;;;;;;;;;;;;;;;;;;6218319;22;19927;-87
2023/03/21 09:21:54;;;;;;;;;;;;;;;;;;6214820;22;20002;-87
2023/03/21 09:24:20;;;;;;;;;;;;;;;;;;6268675;22;19926;-87
2023/03/21 09:26:49;;;;;;;;;;;;;;;;;;6239821;22;19930;-87
2023/03/21 09:29:16;;;;;;;;;;;;;;;;;;6216935;22;19915;-87
2023/03/21 09:31:42;;;;;;;;;;;;;;;;;;6210087;23;20422;-87
2023/03/21 09:34:08;;;;;;;;;;;;;;;;;;6211559;23;19923;-87
2023/03/21 09:36:36;;;;;;;;;;;;;;;;;;6236862;22;19989;-87
2023/03/21 09:39:03;;;;;;;;;;;;;;;;;;6234661;23;19974;-87
2023/03/21 09:41:29;;;;;;;;;;;;;;;;;;6237321;22;19998;-87
2023/03/21 09:43:55;;;;;;;;;;;;;;;;;;6236135;23;19916;-87
2023/03/21 09:46:22;;;;;;;;;;;;;;;;;;6237536;22;19916;-87
2023/03/21 09:48:49;;;;;;;;;;;;;;;;;;6208723;23;19945;-86
2023/03/21 09:51:16;;;;;;;;;;;;;;;;;;6237841;22;19919;-87
2023/03/21 09:53:42;;;;;;;;;;;;;;;;;;6236418;22;20332;-87
2023/03/21 09:56:09;;;;;;;;;;;;;;;;;;6209378;23;20339;-87
2023/03/21 09:58:35;;;;;;;;;;;;;;;;;;6235985;23;20354;-87
2023/03/21 10:01:03;;;;;;;;;;;;;;;;;;6233042;23;19919;-87
2023/03/21 10:03:30;;;;;;;;;;;;;;;;;;6238315;22;19927;-87
2023/03/21 10:05:57;;;;;;;;;;;;;;;;;;6232089;23;19983;-87
2023/03/21 10:08:26;;;;;;;;;;;;;;;;;;6234941;23;19915;-87
2023/03/21 10:10:52;;;;;;;;;;;;;;;;;;6233652;23;19920;-87
2023/03/21 10:13:18;;;;;;;;;;;;;;;;;;6235781;23;19915;-87
2023/03/21 10:15:44;;;;;;;;;;;;;;;;;;6207574;23;20337;-87
2023/03/21 10:18:10;;;;;;;;;;;;;;;;;;6236882;22;19920;-87
2023/03/21 10:20:36;;;;;;;;;;;;;;;;;;6232785;23;20335;-87
2023/03/21 10:23:02;;;;;;;;;;;;;;;;;;6208027;23;19947;-86
2023/03/21 10:25:28;;;;;;;;;;;;;;;;;;6237602;22;19926;-86
2023/03/21 10:27:54;;;;;;;;;;;;;;;;;;6236229;22;20491;-87
2023/03/21 10:30:20;;;;;;;;;;;;;;;;;;6236418;22;19919;-86
2023/03/21 10:32:46;;;;;;;;;;;;;;;;;;6250079;22;19919;-87
2023/03/21 10:35:12;;;;;;;;;;;;;;;;;;6241146;22;20299;-87
2023/03/21 10:37:38;;;;;;;;;;;;;;;;;;6268155;22;19941;-86
2023/03/21 10:40:06;;;;;;;;;;;;;;;;;;6240183;22;20399;-87
2023/03/21 10:42:34;;;;;;;;;;;;;;;;;;6268432;22;19916;-86
2023/03/21 10:45:00;;;;;;;;;;;;;;;;;;6239722;22;20370;-87
2023/03/21 10:47:26;;;;;;;;;;;;;;;;;;6267278;22;19919;-87
2023/03/21 10:49:52;;;;;;;;;;;;;;;;;;6212634;22;19942;-87
2023/03/21 10:52:18;;;;;;;;;;;;;;;;;;6267057;22;19919;-87
2023/03/21 10:54:44;;;;;;;;;;;;;;;;;;6237382;22;19951;-87
2023/03/21 10:57:10;;;;;;;;;;;;;;;;;;6241242;22;20257;-87
2023/03/21 10:59:36;;;;;;;;;;;;;;;;;;6267104;22;20061;-86
2023/03/21 11:02:02;;;;;;;;;;;;;;;;;;6213591;22;19993;-87
2023/03/21 11:04:29;;;;;;;;;;;;;;;;;;6215795;22;19950;-87
2023/03/21 11:06:55;;;;;;;;;;;;;;;;;;6212703;22;20275;-87
2023/03/21 11:09:23;;;;;;;;;;;;;;;;;;6240720;22;19970;-87
2023/03/21 11:11:49;;;;;;;;;;;;;;;;;;6265526;22;19986;-86
2023/03/21 11:14:15;;;;;;;;;;;;;;;;;;6268795;22;19954;-87
2023/03/21 11:16:41;;;;;;;;;;;;;;;;;;6266393;22;19919;-87
2023/03/21 11:19:07;;;;;;;;;;;;;;;;;;6216241;22;19923;-87
2023/03/21 11:21:33;;;;;;;;;;;;;;;;;;6239875;22;19919;-87
2023/03/21 11:23:59;;;;;;;;;;;;;;;;;;6237549;22;19997;-87
2023/03/21 11:26:26;;;;;;;;;;;;;;;;;;6214121;22;19922;-87
2023/03/21 11:28:52;;;;;;;;;;;;;;;;;;6239836;22;19926;-87
2023/03/21 11:31:17;;;;;;;;;;;;;;;;;;6213848;22;19950;-87
2023/03/21 11:33:44;;;;;;;;;;;;;;;;;;6208893;23;19916;-87
2023/03/21 11:36:10;;;;;;;;;;;;;;;;;;6209905;23;19991;-87
2023/03/21 11:38:36;;;;;;;;;;;;;;;;;;6236748;22;19958;-87
2023/03/21 11:41:02;;;;;;;;;;;;;;;;;;6205885;23;19923;-87
2023/03/21 11:43:28;;;;;;;;;;;;;;;;;;6209239;23;20225;-87
2023/03/21 11:45:55;;;;;;;;;;;;;;;;;;6233003;23;19941;-87
2023/03/21 11:48:21;;;;;;;;;;;;;;;;;;6235084;23;19920;-87
2023/03/21 11:50:47;;;;;;;;;;;;;;;;;;6232051;23;19930;-87
2023/03/21 11:53:13;;;;;;;;;;;;;;;;;;6210172;23;20377;-87
2023/03/21 11:55:39;;;;;;;;;;;;;;;;;;6233478;23;19943;-87
2023/03/21 11:58:08;;;;;;;;;;;;;;;;;;6234015;23;20290;-88
2023/03/21 12:00:34;;;;;;;;;;;;;;;;;;6234690;23;19930;-87
2023/03/21 12:03:01;;;;;;;;;;;;;;;;;;6234207;23;19998;-88
2023/03/21 12:05:27;;;;;;;;;;;;;;;;;;6208137;23;20393;-88
2023/03/21 12:07:53;;;;;;;;;;;;;;;;;;6233765;23;19954;-87
2023/03/21 12:10:19;;;;;;;;;;;;;;;;;;6211702;23;19920;-88
2023/03/21 12:12:45;;;;;;;;;;;;;;;;;;6235738;23;19919;-88
2023/03/21 12:15:11;;;;;;;;;;;;;;;;;;6240042;22;19915;-88
2023/03/21 12:17:38;;;;;;;;;;;;;;;;;;6236605;23;19954;-88
2023/03/21 12:20:09;;;;;;;;;;;;;;;;;;6238270;23;19927;-88
2023/03/21 12:22:35;;;;;;;;;;;;;;;;;;6236235;23;20269;-88
2023/03/21 12:25:01;;;;;;;;;;;;;;;;;;6236941;22;20001;-88
2023/03/21 12:27:27;;;;;;;;;;;;;;;;;;6211810;23;20355;-87
2023/03/21 13:00:24;;;;;;;;;;;;;;;;;;6115184;23;19916;-83
2023/03/21 13:09:19;;;;;;;;;;;;;;;;;;6089747;23;19928;-84
2023/03/21 13:15:19;;;;;;;;;;;;;;;;;;;;;
2023/03/21 13:18:17;;;;;;;;;;;;;;;;;;;;;
2023/03/21 13:21:20;;;;;;;;;;;;;;;;;;6080644;23;20019;-84
2023/03/21 13:36:06;;;;;;;;;;;;;;;;;;;;;
2023/03/21 13:39:43;;;;;;;;;;;;;;;;;;;;;
2023/03/21 13:44:56;;;;;;;;;;;;;;;;;;5970985;24;19959;-84
2023/03/21 13:53:54;;;;;;;;;;;;;;;;;;5925223;24;20028;-84
2023/03/21 13:56:42;;;;;;;;;;;;;;;;;;5904044;24;20072;-84
2023/03/21 13:59:33;;;;;;;;;;;;;;;;;;5917981;24;20015;-84
2023/03/21 14:02:13;;;;;;;;;;;;;;;;;;5900661;23;19991;-84
2023/03/21 14:04:58;;;;;;;;;;;;;;;;;;;;;
2023/03/21 14:19:08;;;;;;;;;;;;;;;;;;6159046;23;19927;-84
2023/03/21 14:28:08;;;;;;;;;;;;;;;;;;;;;
2023/03/21 14:31:25;;;;;;;;;;;;;;;;;;;;;
2023/03/21 14:50:17;;;;;;;;;;;;;;;;;;;;;
2023/03/21 15:12:09;;;;;;;;;;;;;;;;;;5950646;24;19918;-84
2023/03/21 15:15:02;;;;;;;;;;;;;;;;;;;;;
2023/03/21 15:36:24;;;;;;;;;;;;;;;;;;6066355;23;19993;-84
2023/03/21 16:13:12;;;;;;;;;;;;;;;;;;;;;
2023/03/21 16:16:06;;;;;;;;;;;;;;;;;;;;;
2023/03/21 16:18:53;;;;;;;;;;;;;;;;;;;;;
2023/03/21 17:00:01;;;;;;;;;;;;;;;;;;6079466;23;19920;-84
2023/03/21 17:09:06;;;;;;;;;;;;;;;;;;;;;
2023/03/21 17:33:28;;;;;;;;;;;;;;;;;;6245064;22;19958;-86
2023/03/21 17:35:54;;;;;;;;;;;;;;;;;;6207618;23;19990;-86
2023/03/21 17:38:20;;;;;;;;;;;;;;;;;;6183840;23;20375;-87
2023/03/21 17:40:46;;;;;;;;;;;;;;;;;;6232393;23;20301;-86
2023/03/21 17:43:12;;;;;;;;;;;;;;;;;;6209544;23;19920;-86
2023/03/21 17:45:39;;;;;;;;;;;;;;;;;;6182362;23;19994;-87
2023/03/21 17:48:05;;;;;;;;;;;;;;;;;;6185431;23;19958;-87
2023/03/21 17:50:33;;;;;;;;;;;;;;;;;;6208947;23;19923;-87
2023/03/21 17:52:59;;;;;;;;;;;;;;;;;;6182775;23;20599;-87
2023/03/21 17:55:25;;;;;;;;;;;;;;;;;;6183859;23;19920;-87
2023/03/21 17:57:51;;;;;;;;;;;;;;;;;;6181702;23;19927;-87
2023/03/21 18:00:17;;;;;;;;;;;;;;;;;;6184363;23;20026;-87
2023/03/21 18:02:43;;;;;;;;;;;;;;;;;;6183232;23;19916;-86
2023/03/21 18:05:09;;;;;;;;;;;;;;;;;;6184333;23;20326;-86
2023/03/21 18:07:35;;;;;;;;;;;;;;;;;;6185070;23;19923;-87
2023/03/21 18:10:02;;;;;;;;;;;;;;;;;;6183274;23;19922;-87
2023/03/21 18:12:28;;;;;;;;;;;;;;;;;;6209023;23;19927;-87
2023/03/21 18:14:54;;;;;;;;;;;;;;;;;;6181727;23;19919;-87
2023/03/21 18:17:21;;;;;;;;;;;;;;;;;;6207436;23;19981;-87
2023/03/21 18:19:47;;;;;;;;;;;;;;;;;;6180738;23;19924;-88
2023/03/21 18:22:13;;;;;;;;;;;;;;;;;;6236847;23;19919;-87
2023/03/21 18:24:39;;;;;;;;;;;;;;;;;;6205891;23;19920;-87
2023/03/21 18:27:05;;;;;;;;;;;;;;;;;;6180278;22;19981;-87
2023/03/21 18:29:31;;;;;;;;;;;;;;;;;;6205924;23;19947;-87
2023/03/21 18:31:59;;;;;;;;;;;;;;;;;;6177233;23;20426;-87
2023/03/21 18:34:26;;;;;;;;;;;;;;;;;;6205780;23;19923;-86
2023/03/21 18:36:52;;;;;;;;;;;;;;;;;;6205977;23;20019;-87
2023/03/21 18:39:18;;;;;;;;;;;;;;;;;;6207408;23;19924;-87
2023/03/21 18:41:44;;;;;;;;;;;;;;;;;;6181953;23;20415;-87
2023/03/21 18:44:11;;;;;;;;;;;;;;;;;;6184791;23;19927;-87
2023/03/21 18:46:39;;;;;;;;;;;;;;;;;;6184497;23;19923;-87
2023/03/21 18:49:05;;;;;;;;;;;;;;;;;;6236818;23;19923;-87
2023/03/21 18:51:31;;;;;;;;;;;;;;;;;;6182599;23;19920;-86
2023/03/21 18:53:59;;;;;;;;;;;;;;;;;;6182764;23;19943;-87
2023/03/21 18:56:25;;;;;;;;;;;;;;;;;;6209212;23;19919;-86
2023/03/21 18:58:51;;;;;;;;;;;;;;;;;;6208967;23;19923;-87
2023/03/21 19:01:17;;;;;;;;;;;;;;;;;;6210156;23;19958;-87
2023/03/21 19:03:43;;;;;;;;;;;;;;;;;;6207547;23;19915;-87
2023/03/21 19:06:09;;;;;;;;;;;;;;;;;;6209614;23;19915;-87
2023/03/21 19:08:37;;;;;;;;;;;;;;;;;;6210138;23;20256;-87
2023/03/21 19:11:03;;;;;;;;;;;;;;;;;;6181511;23;19919;-87
2023/03/21 19:13:29;;;;;;;;;;;;;;;;;;6210688;23;20291;-87
2023/03/21 19:15:55;;;;;;;;;;;;;;;;;;6183469;23;20070;-87
2023/03/21 19:18:21;;;;;;;;;;;;;;;;;;6209333;23;19926;-87
2023/03/21 19:20:47;;;;;;;;;;;;;;;;;;6206159;23;19924;-87
2023/03/21 19:23:13;;;;;;;;;;;;;;;;;;6184410;23;19915;-87
2023/03/21 19:25:39;;;;;;;;;;;;;;;;;;6206536;23;20328;-87
2023/03/21 19:28:05;;;;;;;;;;;;;;;;;;6208224;23;19922;-87
2023/03/21 19:30:31;;;;;;;;;;;;;;;;;;6183218;23;19926;-87
2023/03/21 19:32:57;;;;;;;;;;;;;;;;;;6207434;23;19923;-87
2023/03/21 19:35:23;;;;;;;;;;;;;;;;;;6209311;23;20228;-87
2023/03/21 19:37:50;;;;;;;;;;;;;;;;;;6180383;23;19943;-87
2023/03/21 19:40:18;;;;;;;;;;;;;;;;;;6208216;23;20282;-87
2023/03/21 19:42:44;;;;;;;;;;;;;;;;;;6181980;23;19954;-87
2023/03/21 19:45:10;;;;;;;;;;;;;;;;;;6209760;23;19919;-87
2023/03/21 19:47:36;;;;;;;;;;;;;;;;;;6209707;23;20319;-88
2023/03/21 19:50:02;;;;;;;;;;;;;;;;;;6182064;23;19919;-87
2023/03/21 19:52:28;;;;;;;;;;;;;;;;;;6209207;23;20022;-87
2023/03/21 19:54:55;;;;;;;;;;;;;;;;;;6207285;23;19916;-87
2023/03/21 19:57:22;;;;;;;;;;;;;;;;;;6183264;23;19919;-87
2023/03/21 19:59:52;;;;;;;;;;;;;;;;;;6206916;23;20351;-87
2023/03/21 20:02:19;;;;;;;;;;;;;;;;;;6185334;23;20243;-87
2023/03/21 20:04:45;;;;;;;;;;;;;;;;;;6183349;23;19920;-88
2023/03/21 20:07:11;;;;;;;;;;;;;;;;;;6184676;23;19915;-87
2023/03/21 20:09:37;;;;;;;;;;;;;;;;;;6209643;23;19983;-87
2023/03/21 20:12:04;;;;;;;;;;;;;;;;;;6180190;23;20239;-87
2023/03/21 20:14:30;;;;;;;;;;;;;;;;;;6209394;23;19920;-87
2023/03/21 20:16:56;;;;;;;;;;;;;;;;;;6206625;23;19921;-86
2023/03/21 20:19:22;;;;;;;;;;;;;;;;;;6184663;23;20338;-87
2023/03/21 20:21:49;;;;;;;;;;;;;;;;;;6181804;23;20324;-87
2023/03/21 20:24:15;;;;;;;;;;;;;;;;;;6185789;23;20309;-86
2023/03/21 20:26:43;;;;;;;;;;;;;;;;;;6183221;23;19915;-86
2023/03/21 20:29:09;;;;;;;;;;;;;;;;;;6184405;23;20373;-87
2023/03/21 20:31:36;;;;;;;;;;;;;;;;;;6185704;23;19958;-87
2023/03/21 20:34:02;;;;;;;;;;;;;;;;;;6183097;23;19923;-87
2023/03/21 20:36:28;;;;;;;;;;;;;;;;;;6210221;23;19971;-87
2023/03/21 20:38:54;;;;;;;;;;;;;;;;;;6235219;23;20334;-88
2023/03/21 20:41:20;;;;;;;;;;;;;;;;;;6211033;23;19915;-87
2023/03/21 20:43:46;;;;;;;;;;;;;;;;;;6209507;23;20284;-87
2023/03/21 20:46:12;;;;;;;;;;;;;;;;;;6185811;23;20340;-87
2023/03/21 20:48:39;;;;;;;;;;;;;;;;;;6211642;23;19973;-86